createdAt,value
2023-04-24T00:00:18.779Z,1.93
2023-04-24T00:02:49.884Z,2.17
2023-04-24T00:05:18.596Z,1.13
2023-04-24T00:07:46.499Z,1.60
2023-04-24T00:10:13.851Z,1.87
2023-04-24T00:12:41.221Z,2.00
2023-04-24T00:15:09.770Z,1.70
2023-04-24T00:17:37.943Z,1.50
2023-04-24T00:20:08.041Z,1.47
2023-04-24T00:22:35.417Z,1.93
2023-04-24T00:25:02.793Z,1.57
2023-04-24T00:27:31.171Z,1.90
2023-04-24T00:30:00.250Z,1.83
2023-04-24T00:32:27.495Z,1.90
2023-04-24T00:34:54.862Z,1.30
2023-04-24T00:37:22.348Z,1.20
2023-04-24T00:39:49.684Z,2.20
2023-04-24T00:42:16.997Z,1.70
2023-04-24T00:44:44.653Z,1.73
2023-04-24T00:47:14.179Z,1.40
2023-04-24T00:49:41.668Z,2.17
2023-04-24T00:52:11.908Z,2.03
2023-04-24T00:54:39.884Z,1.53
2023-04-24T00:57:07.702Z,1.70
2023-04-24T00:59:36.935Z,1.57
2023-04-24T01:02:04.502Z,1.83
2023-04-24T01:04:32.034Z,1.53
2023-04-24T01:06:59.517Z,1.90
2023-04-24T01:09:30.309Z,1.80
2023-04-24T01:11:57.697Z,1.83
2023-04-24T01:14:25.192Z,1.53
2023-04-24T01:16:52.574Z,1.70
2023-04-24T01:19:20.896Z,1.40
2023-04-24T01:21:59.374Z,1.93
2023-04-24T01:24:34.040Z,1.93
2023-04-24T01:27:02.313Z,1.60
2023-04-24T01:29:29.876Z,1.63
2023-04-24T01:31:59.577Z,1.27
2023-04-24T01:34:27.689Z,1.70
2023-04-24T01:36:55.312Z,1.57
2023-04-24T01:39:24.426Z,1.93
2023-04-24T01:41:51.866Z,2.33
2023-04-24T01:44:19.825Z,2.30
2023-04-24T01:46:47.358Z,1.90
2023-04-24T01:49:14.964Z,1.77
2023-04-24T01:51:42.560Z,1.87
2023-04-24T01:54:10.852Z,1.33
2023-04-24T01:56:43.888Z,1.40
2023-04-24T01:59:12.884Z,1.97
2023-04-24T02:01:42.769Z,1.60
2023-04-24T02:04:20.928Z,1.33
2023-04-24T02:06:48.292Z,1.70
2023-04-24T02:09:18.814Z,2.00
2023-04-24T02:11:46.243Z,2.27
2023-04-24T02:14:13.689Z,1.40
2023-04-24T02:16:41.587Z,1.50
2023-04-24T02:19:10.890Z,2.10
2023-04-24T02:21:38.377Z,1.93
2023-04-24T02:24:05.724Z,1.60
2023-04-24T02:26:33.130Z,1.87
2023-04-24T02:29:00.782Z,2.00
2023-04-24T02:31:28.642Z,1.97
2023-04-24T02:34:10.280Z,1.93
2023-04-24T02:36:37.754Z,2.33
2023-04-24T02:39:05.182Z,1.50
2023-04-24T02:41:35.665Z,1.87
2023-04-24T02:44:03.169Z,1.70
2023-04-24T02:46:30.529Z,1.77
2023-04-24T02:48:57.885Z,1.73
2023-04-24T02:51:25.396Z,1.70
2023-04-24T02:53:52.992Z,1.63
2023-04-24T02:56:20.773Z,2.07
2023-04-24T02:58:48.413Z,1.67
2023-04-24T03:01:15.902Z,2.23
2023-04-24T03:03:43.484Z,1.63
2023-04-24T03:06:10.957Z,2.10
2023-04-24T03:08:38.386Z,2.77
2023-04-24T03:11:06.584Z,2.20
2023-04-24T03:13:33.996Z,1.97
2023-04-24T03:16:01.612Z,2.03
2023-04-24T03:18:29.108Z,1.80
2023-04-24T03:20:56.620Z,2.60
2023-04-24T03:23:23.827Z,1.90
2023-04-24T03:25:51.167Z,1.83
2023-04-24T03:28:18.491Z,2.13
2023-04-24T03:30:48.313Z,1.90
2023-04-24T03:33:15.888Z,1.97
2023-04-24T03:35:43.989Z,1.70
2023-04-24T03:38:11.779Z,1.87
2023-04-24T03:40:39.202Z,2.43
2023-04-24T03:43:06.855Z,1.73
2023-04-24T03:45:36.105Z,2.77
2023-04-24T03:48:03.982Z,1.50
2023-04-24T03:50:36.574Z,1.80
2023-04-24T03:53:04.032Z,2.87
2023-04-24T03:55:47.938Z,2.47
2023-04-24T03:58:15.706Z,1.90
2023-04-24T04:00:43.332Z,2.17
2023-04-24T04:03:11.172Z,1.97
2023-04-24T04:05:38.815Z,2.00
2023-04-24T04:08:16.241Z,2.20
2023-04-24T04:10:43.732Z,2.00
2023-04-24T04:13:14.334Z,2.47
2023-04-24T04:15:42.253Z,2.60
2023-04-24T04:18:09.759Z,3.03
2023-04-24T04:20:37.107Z,2.13
2023-04-24T04:23:04.588Z,2.20
2023-04-24T04:25:37.741Z,2.50
2023-04-24T04:28:05.236Z,2.83
2023-04-24T04:30:33.397Z,2.47
2023-04-24T04:33:01.627Z,2.13
2023-04-24T04:35:29.028Z,2.93
2023-04-24T04:38:00.058Z,2.53
2023-04-24T04:40:28.320Z,2.30
2023-04-24T04:42:55.587Z,2.47
2023-04-24T04:45:22.931Z,2.50
2023-04-24T04:47:52.840Z,2.53
2023-04-24T04:50:20.620Z,2.60
2023-04-24T04:52:47.916Z,1.87
2023-04-24T04:55:15.845Z,3.23
2023-04-24T04:57:43.084Z,2.20
2023-04-24T05:00:11.994Z,2.30
2023-04-24T05:02:40.541Z,2.27
2023-04-24T05:05:09.934Z,2.43
2023-04-24T05:07:37.379Z,2.80
2023-04-24T05:10:05.263Z,2.30
2023-04-24T05:12:32.540Z,2.57
2023-04-24T05:14:59.835Z,2.37
2023-04-24T05:17:27.289Z,1.73
2023-04-24T05:19:54.530Z,2.03
2023-04-24T05:22:23.499Z,2.13
2023-04-24T05:24:51.069Z,2.70
2023-04-24T05:27:18.997Z,1.97
2023-04-24T05:29:46.168Z,3.07
2023-04-24T05:32:15.697Z,2.80
2023-04-24T05:34:45.322Z,2.73
2023-04-24T05:37:13.389Z,3.13
2023-04-24T05:39:42.387Z,2.73
2023-04-24T05:42:10.199Z,2.43
2023-04-24T05:44:40.477Z,2.87
2023-04-24T05:47:07.999Z,2.37
2023-04-24T05:49:35.218Z,2.93
2023-04-24T05:52:02.448Z,2.70
2023-04-24T05:54:30.000Z,2.47
2023-04-24T05:56:59.856Z,2.77
2023-04-24T05:59:27.534Z,1.60
2023-04-24T06:01:54.813Z,1.87
2023-04-24T06:04:22.746Z,2.00
2023-04-24T06:06:51.984Z,2.37
2023-04-24T06:09:19.605Z,2.20
2023-04-24T06:11:46.914Z,2.27
2023-04-24T06:14:14.485Z,1.77
2023-04-24T06:16:44.990Z,1.87
2023-04-24T06:19:12.271Z,2.23
2023-04-24T06:21:39.518Z,2.17
2023-04-24T06:24:07.061Z,2.20
2023-04-24T06:26:34.507Z,2.10
2023-04-24T06:29:02.146Z,2.27
2023-04-24T06:31:45.335Z,2.72
2023-04-24T06:34:12.805Z,2.37
2023-04-24T06:36:40.145Z,2.17
2023-04-24T06:39:11.008Z,2.20
2023-04-24T06:41:39.011Z,2.53
2023-04-24T06:44:06.654Z,2.87
2023-04-24T06:46:37.192Z,2.77
2023-04-24T06:49:08.595Z,3.00
2023-04-24T06:51:36.892Z,2.67
2023-04-24T06:54:19.018Z,2.30
2023-04-24T06:56:48.914Z,2.43
2023-04-24T06:59:21.576Z,2.13
2023-04-24T07:01:53.958Z,2.67
2023-04-24T07:04:23.057Z,2.47
2023-04-24T07:06:55.506Z,2.43
2023-04-24T07:09:26.643Z,2.33
2023-04-24T07:12:01.888Z,2.90
2023-04-24T07:14:35.395Z,1.60
2023-04-24T07:17:10.455Z,2.20
2023-04-24T07:19:47.308Z,2.60
2023-04-24T07:22:45.287Z,2.67
2023-04-24T07:28:14.739Z,1.60
2023-04-24T07:30:48.638Z,2.50
2023-04-24T07:33:37.890Z,1.90
2023-04-24T07:36:27.389Z,2.00
2023-04-24T07:38:55.366Z,2.13
2023-04-24T07:41:23.571Z,2.37
2023-04-24T07:43:55.012Z,2.27
2023-04-24T07:46:34.969Z,2.50
2023-04-24T07:49:12.974Z,2.33
2023-04-24T07:51:42.751Z,2.57
2023-04-24T07:54:10.777Z,2.13
2023-04-24T07:56:40.355Z,2.53
2023-04-24T07:59:08.097Z,3.47
2023-04-24T08:01:35.704Z,2.20
2023-04-24T08:04:05.653Z,2.73
2023-04-24T08:06:33.681Z,1.87
2023-04-24T08:09:02.640Z,2.30
2023-04-24T08:11:32.979Z,1.33
2023-04-24T08:14:00.573Z,1.83
2023-04-24T08:16:30.694Z,2.13
2023-04-24T08:18:58.222Z,2.20
2023-04-24T08:21:31.506Z,2.33
2023-04-24T08:24:06.307Z,3.30
2023-04-24T08:26:46.548Z,2.10
2023-04-24T08:29:32.399Z,1.70
2023-04-24T08:32:02.837Z,2.77
2023-04-24T08:34:30.229Z,2.27
2023-04-24T08:36:58.737Z,2.00
2023-04-24T08:39:28.505Z,2.50
2023-04-24T08:41:57.602Z,1.83
2023-04-24T08:44:24.809Z,2.67
2023-04-24T08:46:53.269Z,3.07
2023-04-24T08:49:24.521Z,2.40
2023-04-24T08:52:08.052Z,2.23
2023-04-24T08:54:39.346Z,2.53
2023-04-24T08:57:12.567Z,2.23
2023-04-24T08:59:41.033Z,2.60
2023-04-24T09:02:12.910Z,2.53
2023-04-24T09:04:42.891Z,2.93
2023-04-24T09:07:17.767Z,2.63
2023-04-24T09:09:49.451Z,1.73
2023-04-24T09:12:16.922Z,2.70
2023-04-24T09:14:46.494Z,2.00
2023-04-24T09:17:14.401Z,2.77
2023-04-24T09:19:42.738Z,3.07
2023-04-24T09:22:12.412Z,3.90
2023-04-24T09:24:42.450Z,2.30
2023-04-24T09:27:13.964Z,2.30
2023-04-24T09:29:55.383Z,2.57
2023-04-24T09:32:26.885Z,2.53
2023-04-24T09:35:15.569Z,2.27
2023-04-24T09:37:46.824Z,2.73
2023-04-24T09:40:23.356Z,2.87
2023-04-24T09:42:58.943Z,4.60
2023-04-24T09:45:36.694Z,2.67
2023-04-24T09:48:04.564Z,4.10
2023-04-24T09:50:38.354Z,2.43
2023-04-24T09:53:09.939Z,2.97
2023-04-24T09:55:45.880Z,2.73
2023-04-24T09:58:13.044Z,2.57
2023-04-24T10:00:40.330Z,2.03
2023-04-24T10:03:07.758Z,3.00
2023-04-24T10:05:39.861Z,2.77
2023-04-24T10:08:13.039Z,2.67
2023-04-24T10:10:46.184Z,2.97
2023-04-24T10:13:16.790Z,2.87
2023-04-24T10:15:45.033Z,3.17
2023-04-24T10:18:12.751Z,2.33
2023-04-24T10:20:41.690Z,2.63
2023-04-24T10:23:09.197Z,2.63
2023-04-24T10:25:37.998Z,2.17
2023-04-24T10:28:07.794Z,3.57
2023-04-24T10:30:36.866Z,2.43
2023-04-24T10:33:09.991Z,2.60
2023-04-24T10:35:46.794Z,2.60
2023-04-24T10:38:18.017Z,2.40
2023-04-24T10:40:45.449Z,3.10
2023-04-24T10:43:20.026Z,3.03
2023-04-24T10:46:11.611Z,2.77
2023-04-24T10:48:45.470Z,2.80
2023-04-24T10:51:15.191Z,2.77
2023-04-24T10:53:42.359Z,2.93
2023-04-24T10:56:11.124Z,2.87
2023-04-24T10:58:48.791Z,2.67
2023-04-24T11:01:34.081Z,2.47
2023-04-24T11:04:04.691Z,2.97
2023-04-24T11:06:32.905Z,2.80
2023-04-24T11:09:08.483Z,2.97
2023-04-24T11:11:45.166Z,2.77
2023-04-24T11:14:16.145Z,3.07
2023-04-24T11:16:58.102Z,2.60
2023-04-24T11:19:27.637Z,2.37
2023-04-24T11:22:04.359Z,3.03
2023-04-24T11:24:54.874Z,3.07
2023-04-24T11:27:23.754Z,3.30
2023-04-24T11:29:57.601Z,2.83
2023-04-24T11:32:34.417Z,2.47
2023-04-24T11:35:23.478Z,2.83
2023-04-24T11:38:13.060Z,2.77
2023-04-24T11:40:43.874Z,3.10
2023-04-24T11:43:19.937Z,2.73
2023-04-24T11:45:52.084Z,3.20
2023-04-24T11:48:23.693Z,2.90
2023-04-24T11:50:51.991Z,2.87
2023-04-24T11:53:22.883Z,2.80
2023-04-24T11:56:03.042Z,3.33
2023-04-24T11:58:36.375Z,3.23
2023-04-24T12:01:04.405Z,3.47
2023-04-24T12:03:32.588Z,2.67
2023-04-24T12:06:11.277Z,2.67
2023-04-24T12:08:38.994Z,3.33
2023-04-24T12:11:11.301Z,2.70
2023-04-24T12:13:38.595Z,3.00
2023-04-24T12:16:06.864Z,3.23
2023-04-24T12:18:34.367Z,4.03
2023-04-24T12:21:26.193Z,2.70
2023-04-24T12:23:56.813Z,3.70
2023-04-24T12:26:38.365Z,3.83
2023-04-24T12:29:05.805Z,3.40
2023-04-24T12:31:33.770Z,3.03
2023-04-24T12:34:01.635Z,3.10
2023-04-24T12:36:34.323Z,3.50
2023-04-24T12:39:27.826Z,4.03
2023-04-24T12:42:03.299Z,3.60
2023-04-24T12:44:38.199Z,4.30
2023-04-24T12:47:08.080Z,3.00
2023-04-24T12:49:35.365Z,3.17
2023-04-24T12:52:02.690Z,4.00
2023-04-24T12:54:34.775Z,4.40
2023-04-24T12:57:17.253Z,3.60
2023-04-24T12:59:45.099Z,4.07
2023-04-24T13:02:13.504Z,4.40
2023-04-24T13:04:41.919Z,4.00
2023-04-24T13:07:09.414Z,4.33
2023-04-24T13:09:36.975Z,3.67
2023-04-24T13:12:04.280Z,4.07
2023-04-24T13:14:31.776Z,4.87
2023-04-24T13:16:59.045Z,4.70
2023-04-24T13:19:31.149Z,5.07
2023-04-24T13:22:07.707Z,4.23
2023-04-24T13:24:35.700Z,4.40
2023-04-24T13:27:06.302Z,4.67
2023-04-24T13:29:39.931Z,4.17
2023-04-24T13:32:08.332Z,4.73
2023-04-24T13:34:36.364Z,4.70
2023-04-24T13:37:07.247Z,4.13
2023-04-24T13:39:34.930Z,4.57
2023-04-24T13:42:04.604Z,4.23
2023-04-24T13:44:32.787Z,5.03
2023-04-24T13:47:00.594Z,4.83
2023-04-24T13:49:28.501Z,5.50
2023-04-24T13:51:57.195Z,5.33
2023-04-24T13:54:27.024Z,4.37
2023-04-24T13:56:57.873Z,4.40
2023-04-24T13:59:26.202Z,4.30
2023-04-24T14:01:55.967Z,5.03
2023-04-24T14:04:33.698Z,4.40
2023-04-24T14:07:01.410Z,4.83
2023-04-24T14:09:28.684Z,5.00
2023-04-24T14:11:56.086Z,5.17
2023-04-24T14:14:24.139Z,5.30
2023-04-24T14:16:51.530Z,4.60
2023-04-24T14:19:19.102Z,4.70
2023-04-24T14:21:46.538Z,5.30
2023-04-24T14:24:16.192Z,5.73
2023-04-24T14:26:43.663Z,5.43
2023-04-24T14:29:35.409Z,5.00
2023-04-24T14:32:02.880Z,5.33
2023-04-24T14:34:35.995Z,4.17
2023-04-24T14:37:36.112Z,6.20
2023-04-24T14:40:36.585Z,5.33
2023-04-24T14:48:46.277Z,5.67
2023-04-24T14:51:13.740Z,6.07
2023-04-24T14:53:41.125Z,5.83
2023-04-24T14:56:08.806Z,6.43
2023-04-24T14:58:36.298Z,6.07
2023-04-24T15:01:03.740Z,7.00
2023-04-24T15:03:32.150Z,6.07
2023-04-24T15:05:59.866Z,5.33
2023-04-24T15:08:27.319Z,6.73
2023-04-24T15:10:54.960Z,6.17
2023-04-24T15:13:25.131Z,5.60
2023-04-24T15:15:52.387Z,6.13
2023-04-24T15:18:19.602Z,6.00
2023-04-24T15:20:47.150Z,5.27
2023-04-24T15:23:14.356Z,5.70
2023-04-24T15:25:41.607Z,6.60
2023-04-24T15:28:08.823Z,4.47
2023-04-24T15:30:36.183Z,5.57
2023-04-24T15:33:03.546Z,7.43
2023-04-24T15:35:31.147Z,6.57
2023-04-24T15:37:58.410Z,5.23
2023-04-24T15:40:25.892Z,5.87
2023-04-24T15:42:55.037Z,5.57
2023-04-24T15:45:25.366Z,7.07
2023-04-24T15:47:52.815Z,5.83
2023-04-24T15:50:21.971Z,6.37
2023-04-24T15:52:49.030Z,6.27
2023-04-24T15:55:16.384Z,5.13
2023-04-24T15:57:43.930Z,5.40
2023-04-24T16:00:11.961Z,5.90
2023-04-24T16:02:41.807Z,7.27
2023-04-24T16:05:11.594Z,6.53
2023-04-24T16:07:40.387Z,6.33
2023-04-24T16:10:08.146Z,5.83
2023-04-24T16:12:38.161Z,6.23
2023-04-24T16:15:06.337Z,5.53
2023-04-24T16:17:33.465Z,6.37
2023-04-24T16:20:00.716Z,7.80
2023-04-24T16:22:28.297Z,6.77
2023-04-24T16:24:55.513Z,6.23
2023-04-24T16:27:22.764Z,6.40
2023-04-24T16:29:57.237Z,6.60
2023-04-24T16:32:24.749Z,6.30
2023-04-24T16:34:52.381Z,7.40
2023-04-24T16:37:20.578Z,5.33
2023-04-24T16:39:51.461Z,6.13
2023-04-24T16:42:18.664Z,7.20
2023-04-24T16:44:45.792Z,5.93
2023-04-24T16:47:14.813Z,5.80
2023-04-24T16:49:42.432Z,5.80
2023-04-24T16:52:11.844Z,6.73
2023-04-24T16:54:40.927Z,5.93
2023-04-24T16:57:08.229Z,6.90
2023-04-24T16:59:35.846Z,6.73
2023-04-24T17:02:03.400Z,8.53
2023-04-24T17:04:32.374Z,12.50
2023-04-24T17:06:59.880Z,7.63
2023-04-24T17:09:27.209Z,10.90
2023-04-24T17:11:54.461Z,5.13
2023-04-24T17:14:23.351Z,7.23
2023-04-24T17:16:50.886Z,6.53
2023-04-24T17:19:32.568Z,6.17
2023-04-24T17:22:06.181Z,6.03
2023-04-24T17:24:33.865Z,6.00
2023-04-24T17:27:13.841Z,5.77
2023-04-24T17:29:52.520Z,6.33
2023-04-24T17:32:26.320Z,6.43
2023-04-24T17:34:58.578Z,6.10
2023-04-24T17:37:28.907Z,7.07
2023-04-24T17:39:59.018Z,5.60
2023-04-24T17:42:38.411Z,5.47
2023-04-24T17:45:18.240Z,6.30
2023-04-24T17:48:10.634Z,5.87
2023-04-24T17:51:14.109Z,5.27
2023-04-24T17:53:34.887Z,5.87
2023-04-24T17:56:04.052Z,6.53
2023-04-24T17:58:35.637Z,7.37
2023-04-24T18:01:03.201Z,9.63
2023-04-24T18:03:30.818Z,6.47
2023-04-24T18:05:59.460Z,6.10
2023-04-24T18:08:26.853Z,6.60
2023-04-24T18:10:54.247Z,5.90
2023-04-24T18:13:21.675Z,5.90
2023-04-24T18:15:48.968Z,6.87
2023-04-24T18:18:18.236Z,6.40
2023-04-24T18:20:46.575Z,6.80
2023-04-24T18:23:16.230Z,6.17
2023-04-24T18:25:43.595Z,7.17
2023-04-24T18:28:10.942Z,7.83
2023-04-24T18:30:43.720Z,5.73
2023-04-24T18:33:12.162Z,5.77
2023-04-24T18:35:41.968Z,7.63
2023-04-24T18:38:09.629Z,7.50
2023-04-24T18:40:51.723Z,6.20
2023-04-24T18:43:21.523Z,6.83
2023-04-24T18:45:52.557Z,8.27
2023-04-24T18:48:20.227Z,5.60
2023-04-24T18:51:14.415Z,6.10
2023-04-24T18:53:43.030Z,5.70
2023-04-24T18:56:22.515Z,6.60
2023-04-24T18:58:57.812Z,5.83
2023-04-24T19:01:34.201Z,6.20
2023-04-24T19:04:07.180Z,5.50
2023-04-24T19:06:49.123Z,5.87
2023-04-24T19:09:19.090Z,5.33
2023-04-24T19:11:55.092Z,5.97
2023-04-24T19:14:29.865Z,6.20
2023-04-24T19:17:00.939Z,5.97
2023-04-24T19:19:31.232Z,5.67
2023-04-24T19:21:58.791Z,5.70
2023-04-24T19:24:27.078Z,6.00
2023-04-24T19:26:54.316Z,6.23
2023-04-24T19:29:21.616Z,5.97
2023-04-24T19:31:49.033Z,5.40
2023-04-24T19:34:16.469Z,7.00
2023-04-24T19:36:46.183Z,6.43
2023-04-24T19:39:13.597Z,6.47
2023-04-24T19:41:41.068Z,5.90
2023-04-24T19:44:09.982Z,6.40
2023-04-24T19:46:37.651Z,5.60
2023-04-24T19:49:07.240Z,7.20
2023-04-24T19:51:37.832Z,5.37
2023-04-24T19:54:06.824Z,7.20
2023-04-24T19:56:36.334Z,6.33
2023-04-24T19:59:03.968Z,7.17
2023-04-24T20:01:32.532Z,6.73
2023-04-24T20:04:00.053Z,6.43
2023-04-24T20:06:34.626Z,6.77
2023-04-24T20:09:19.776Z,6.87
2023-04-24T20:12:04.555Z,6.17
2023-04-24T20:14:44.334Z,6.17
2023-04-24T20:17:18.229Z,6.83
2023-04-24T20:19:48.303Z,7.27
2023-04-24T20:22:17.841Z,6.27
2023-04-24T20:24:46.052Z,6.53
2023-04-24T20:27:13.431Z,6.67
2023-04-24T20:29:41.117Z,6.53
2023-04-24T20:32:08.575Z,7.07
2023-04-24T20:34:36.060Z,7.73
2023-04-24T20:37:04.234Z,5.47
2023-04-24T20:39:31.489Z,5.93
2023-04-24T20:42:00.968Z,6.23
2023-04-24T20:44:28.450Z,6.13
2023-04-24T20:46:55.852Z,5.53
2023-04-24T20:49:23.152Z,5.43
2023-04-24T20:51:50.470Z,6.37
2023-04-24T20:54:17.726Z,5.63
2023-04-24T20:56:45.138Z,5.63
2023-04-24T20:59:12.451Z,6.23
2023-04-24T21:01:39.663Z,5.67
2023-04-24T21:04:06.846Z,5.90
2023-04-24T21:06:34.016Z,5.83
2023-04-24T21:09:01.137Z,5.77
2023-04-24T21:11:28.278Z,6.70
2023-04-24T21:13:55.587Z,5.20
2023-04-24T21:16:25.079Z,5.73
2023-04-24T21:18:52.353Z,5.77
2023-04-24T21:21:19.438Z,5.97
2023-04-24T21:23:46.739Z,6.03
2023-04-24T21:26:14.079Z,7.23
2023-04-24T21:28:41.297Z,5.60
2023-04-24T21:31:09.947Z,6.13
2023-04-24T21:33:37.356Z,5.83
2023-04-24T21:36:04.781Z,6.00
2023-04-24T21:38:40.416Z,4.67
2023-04-24T21:41:07.679Z,4.57
2023-04-24T21:43:43.810Z,4.90
2023-04-24T21:46:12.139Z,4.83
2023-04-24T21:48:39.305Z,5.47
2023-04-24T21:51:06.423Z,5.33
2023-04-24T21:53:33.909Z,4.57
2023-04-24T21:56:01.337Z,4.67
2023-04-24T21:58:28.869Z,6.10
2023-04-24T22:00:56.017Z,4.53
2023-04-24T22:03:23.402Z,4.20
2023-04-24T22:05:50.629Z,3.50
2023-04-24T22:08:17.789Z,4.27
2023-04-24T22:10:45.130Z,2.93
2023-04-24T22:13:12.274Z,3.43
2023-04-24T22:15:39.422Z,4.27
2023-04-24T22:18:06.809Z,2.93
2023-04-24T22:20:34.232Z,3.47
2023-04-24T22:23:01.803Z,3.20
2023-04-24T22:25:28.997Z,3.10
2023-04-24T22:27:56.416Z,3.13
2023-04-24T22:30:23.628Z,2.70
2023-04-24T22:32:51.065Z,2.17
2023-04-24T22:35:19.862Z,2.00
2023-04-24T22:37:48.925Z,1.53
2023-04-24T22:40:16.150Z,2.27
2023-04-24T22:42:43.352Z,1.57
2023-04-24T22:45:13.484Z,1.83
2023-04-24T22:47:41.225Z,1.73
2023-04-24T22:50:10.771Z,2.23
2023-04-24T22:52:37.996Z,1.33
2023-04-24T22:55:06.777Z,2.03
2023-04-24T22:57:34.155Z,1.43
2023-04-24T23:00:01.300Z,1.07
2023-04-24T23:02:29.107Z,1.60
2023-04-24T23:04:56.840Z,1.57
2023-04-24T23:07:23.939Z,1.20
2023-04-24T23:09:51.115Z,1.50
2023-04-24T23:12:18.258Z,2.00
2023-04-24T23:14:45.443Z,0.90
2023-04-24T23:17:12.585Z,1.43
2023-04-24T23:19:39.848Z,1.37
2023-04-24T23:22:07.037Z,1.40
2023-04-24T23:24:34.266Z,1.67
2023-04-24T23:27:02.119Z,1.07
2023-04-24T23:29:29.329Z,1.50
2023-04-24T23:31:56.578Z,1.27
2023-04-24T23:34:23.868Z,1.63
2023-04-24T23:36:52.812Z,0.90
2023-04-24T23:39:20.337Z,1.47
2023-04-24T23:41:49.436Z,1.20
2023-04-24T23:44:16.673Z,1.17
2023-04-24T23:46:43.718Z,1.87
2023-04-24T23:49:10.797Z,2.03
2023-04-24T23:51:38.311Z,1.27
2023-04-24T23:54:05.720Z,1.47
2023-04-24T23:56:33.015Z,1.37
2023-04-24T23:59:00.104Z,1.00
